sensor_id;sensor_type;location;lat;lon;timestamp;temperature;humidity
54642;DHT22;40536;53.194;5.728;2023-05-10T15:29:29;18.20;99.90
54642;DHT22;40536;53.194;5.728;2023-05-10T15:31:55;17.90;99.90
54642;DHT22;40536;53.194;5.728;2023-05-10T15:34:21;17.80;99.90
54642;DHT22;40536;53.194;5.728;2023-05-10T15:36:46;17.70;99.90
54642;DHT22;40536;53.194;5.728;2023-05-10T15:39:12;17.60;99.90
54642;DHT22;40536;53.194;5.728;2023-05-10T15:41:38;17.40;99.90
54642;DHT22;40536;53.194;5.728;2023-05-10T15:44:03;17.30;99.90
54642;DHT22;40536;53.194;5.728;2023-05-10T15:46:29;17.20;99.90
54642;DHT22;40536;53.194;5.728;2023-05-10T15:48:58;17.20;99.90
54642;DHT22;40536;53.194;5.728;2023-05-10T15:51:25;17.20;99.90
54642;DHT22;40536;53.194;5.728;2023-05-10T15:53:51;17.20;99.90
54642;DHT22;40536;53.194;5.728;2023-05-10T15:56:16;17.20;99.90
54642;DHT22;40536;53.194;5.728;2023-05-10T15:58:42;17.10;99.90
54642;DHT22;40536;53.194;5.728;2023-05-10T16:01:09;17.00;99.90
54642;DHT22;40536;53.194;5.728;2023-05-10T16:03:36;16.90;99.90
54642;DHT22;40536;53.194;5.728;2023-05-10T16:06:02;16.70;99.90
54642;DHT22;40536;53.194;5.728;2023-05-10T16:08:28;16.60;99.90
54642;DHT22;40536;53.194;5.728;2023-05-10T16:10:58;16.50;99.90
54642;DHT22;40536;53.194;5.728;2023-05-10T16:13:24;16.40;99.90
54642;DHT22;40536;53.194;5.728;2023-05-10T16:15:50;16.30;99.90
54642;DHT22;40536;53.194;5.728;2023-05-10T16:18:16;16.30;99.90
54642;DHT22;40536;53.194;5.728;2023-05-10T16:20:43;16.20;99.90
54642;DHT22;40536;53.194;5.728;2023-05-10T16:23:09;16.10;99.90
54642;DHT22;40536;53.194;5.728;2023-05-10T16:25:35;16.10;99.90
54642;DHT22;40536;53.194;5.728;2023-05-10T16:28:02;16.00;99.90
54642;DHT22;40536;53.194;5.728;2023-05-10T16:30:28;15.90;99.90
54642;DHT22;40536;53.194;5.728;2023-05-10T16:32:56;15.90;99.90
54642;DHT22;40536;53.194;5.728;2023-05-10T16:35:21;15.90;99.90
54642;DHT22;40536;53.194;5.728;2023-05-10T16:37:48;15.90;99.90
54642;DHT22;40536;53.194;5.728;2023-05-10T16:40:14;15.70;99.90
54642;DHT22;40536;53.194;5.728;2023-05-10T16:42:40;15.60;99.90
54642;DHT22;40536;53.194;5.728;2023-05-10T16:45:06;15.60;99.90
54642;DHT22;40536;53.194;5.728;2023-05-10T16:47:39;15.50;99.90
54642;DHT22;40536;53.194;5.728;2023-05-10T16:50:05;15.40;99.90
54642;DHT22;40536;53.194;5.728;2023-05-10T16:52:32;15.30;99.90
54642;DHT22;40536;53.194;5.728;2023-05-10T16:54:58;15.20;99.90
54642;DHT22;40536;53.194;5.728;2023-05-10T16:57:24;15.20;99.90
54642;DHT22;40536;53.194;5.728;2023-05-10T16:59:50;15.10;99.90
54642;DHT22;40536;53.194;5.728;2023-05-10T17:02:19;15.00;99.90
54642;DHT22;40536;53.194;5.728;2023-05-10T17:04:45;14.90;99.90
54642;DHT22;40536;53.194;5.728;2023-05-10T17:07:11;14.90;99.90
54642;DHT22;40536;53.194;5.728;2023-05-10T17:09:38;14.90;99.90
54642;DHT22;40536;53.194;5.728;2023-05-10T17:12:03;14.80;99.90
54642;DHT22;40536;53.194;5.728;2023-05-10T17:14:29;14.90;99.90
54642;DHT22;40536;53.194;5.728;2023-05-10T17:16:55;14.80;99.90
54642;DHT22;40536;53.194;5.728;2023-05-10T17:19:20;14.80;99.90
54642;DHT22;40536;53.194;5.728;2023-05-10T17:21:46;14.70;99.90
54642;DHT22;40536;53.194;5.728;2023-05-10T17:24:13;14.70;99.90
54642;DHT22;40536;53.194;5.728;2023-05-10T17:26:39;14.60;99.90
54642;DHT22;40536;53.194;5.728;2023-05-10T17:29:04;14.50;99.90
54642;DHT22;40536;53.194;5.728;2023-05-10T17:31:30;14.50;99.90
54642;DHT22;40536;53.194;5.728;2023-05-10T17:33:57;14.40;99.90
54642;DHT22;40536;53.194;5.728;2023-05-10T17:36:23;14.40;99.90
54642;DHT22;40536;53.194;5.728;2023-05-10T17:38:49;14.40;99.90
54642;DHT22;40536;53.194;5.728;2023-05-10T17:41:15;14.30;99.90
54642;DHT22;40536;53.194;5.728;2023-05-10T17:43:42;14.30;99.90
54642;DHT22;40536;53.194;5.728;2023-05-10T17:46:07;14.30;99.90
54642;DHT22;40536;53.194;5.728;2023-05-10T17:48:33;14.30;99.90
54642;DHT22;40536;53.194;5.728;2023-05-10T17:51:02;14.30;99.90
54642;DHT22;40536;53.194;5.728;2023-05-10T17:53:28;14.20;99.90
54642;DHT22;40536;53.194;5.728;2023-05-10T17:55:54;14.10;99.90
54642;DHT22;40536;53.194;5.728;2023-05-10T17:58:23;14.10;99.90
54642;DHT22;40536;53.194;5.728;2023-05-10T18:00:50;14.00;99.90
54642;DHT22;40536;53.194;5.728;2023-05-10T18:03:16;13.90;99.90
54642;DHT22;40536;53.194;5.728;2023-05-10T18:05:42;13.90;99.90
54642;DHT22;40536;53.194;5.728;2023-05-10T18:08:08;13.80;99.90
54642;DHT22;40536;53.194;5.728;2023-05-10T18:10:35;13.70;99.90
54642;DHT22;40536;53.194;5.728;2023-05-10T18:13:01;13.70;99.90
54642;DHT22;40536;53.194;5.728;2023-05-10T18:15:26;13.60;99.90
54642;DHT22;40536;53.194;5.728;2023-05-10T18:17:52;13.50;99.90
54642;DHT22;40536;53.194;5.728;2023-05-10T18:20:18;13.50;99.90
54642;DHT22;40536;53.194;5.728;2023-05-10T18:22:44;13.40;99.90
54642;DHT22;40536;53.194;5.728;2023-05-10T18:25:09;13.40;99.90
54642;DHT22;40536;53.194;5.728;2023-05-10T18:27:41;13.40;99.90
54642;DHT22;40536;53.194;5.728;2023-05-10T18:30:07;13.40;99.90
54642;DHT22;40536;53.194;5.728;2023-05-10T18:32:34;13.30;99.90
54642;DHT22;40536;53.194;5.728;2023-05-10T18:35:00;13.30;99.90
54642;DHT22;40536;53.194;5.728;2023-05-10T18:37:26;13.20;99.90
54642;DHT22;40536;53.194;5.728;2023-05-10T18:39:52;13.20;99.90
54642;DHT22;40536;53.194;5.728;2023-05-10T18:42:18;13.10;99.90
54642;DHT22;40536;53.194;5.728;2023-05-10T18:44:45;13.00;99.90
54642;DHT22;40536;53.194;5.728;2023-05-10T18:47:10;13.00;99.90
54642;DHT22;40536;53.194;5.728;2023-05-10T18:49:36;13.00;99.90
54642;DHT22;40536;53.194;5.728;2023-05-10T18:52:01;13.00;99.90
54642;DHT22;40536;53.194;5.728;2023-05-10T18:54:27;13.00;99.90
54642;DHT22;40536;53.194;5.728;2023-05-10T18:56:54;12.90;99.90
54642;DHT22;40536;53.194;5.728;2023-05-10T18:59:21;12.90;99.90
54642;DHT22;40536;53.194;5.728;2023-05-10T19:01:47;12.80;99.90
54642;DHT22;40536;53.194;5.728;2023-05-10T19:04:12;12.70;99.90
54642;DHT22;40536;53.194;5.728;2023-05-10T19:06:38;12.60;99.90
54642;DHT22;40536;53.194;5.728;2023-05-10T19:09:06;12.50;99.90
54642;DHT22;40536;53.194;5.728;2023-05-10T19:11:33;12.50;99.90
54642;DHT22;40536;53.194;5.728;2023-05-10T19:13:59;12.40;99.90
54642;DHT22;40536;53.194;5.728;2023-05-10T19:16:25;12.40;99.90
54642;DHT22;40536;53.194;5.728;2023-05-10T19:18:52;12.30;99.90
54642;DHT22;40536;53.194;5.728;2023-05-10T19:21:18;12.50;99.90
54642;DHT22;40536;53.194;5.728;2023-05-10T19:23:44;12.20;99.90
54642;DHT22;40536;53.194;5.728;2023-05-10T19:26:10;12.10;99.90
54642;DHT22;40536;53.194;5.728;2023-05-10T19:28:39;12.10;99.90
54642;DHT22;40536;53.194;5.728;2023-05-10T19:31:05;12.10;99.90
54642;DHT22;40536;53.194;5.728;2023-05-10T19:33:34;12.10;99.90
54642;DHT22;40536;53.194;5.728;2023-05-10T19:36:00;12.10;99.90
54642;DHT22;40536;53.194;5.728;2023-05-10T19:38:26;12.10;99.90
54642;DHT22;40536;53.194;5.728;2023-05-10T19:40:55;12.00;99.90
54642;DHT22;40536;53.194;5.728;2023-05-10T19:43:26;12.00;99.90
54642;DHT22;40536;53.194;5.728;2023-05-10T19:45:52;12.10;99.90
54642;DHT22;40536;53.194;5.728;2023-05-10T19:48:18;12.00;99.90
54642;DHT22;40536;53.194;5.728;2023-05-10T19:50:43;12.00;99.90
54642;DHT22;40536;53.194;5.728;2023-05-10T19:53:09;12.00;99.90
54642;DHT22;40536;53.194;5.728;2023-05-10T19:55:36;12.00;99.90
54642;DHT22;40536;53.194;5.728;2023-05-10T19:58:02;12.00;99.90
54642;DHT22;40536;53.194;5.728;2023-05-10T20:00:30;11.90;99.90
54642;DHT22;40536;53.194;5.728;2023-05-10T20:02:56;11.90;99.90
54642;DHT22;40536;53.194;5.728;2023-05-10T20:05:22;11.80;99.90
54642;DHT22;40536;53.194;5.728;2023-05-10T20:07:48;11.80;99.90
54642;DHT22;40536;53.194;5.728;2023-05-10T20:10:14;11.80;99.90
54642;DHT22;40536;53.194;5.728;2023-05-10T20:12:40;11.70;99.90
54642;DHT22;40536;53.194;5.728;2023-05-10T20:15:06;11.70;99.90
54642;DHT22;40536;53.194;5.728;2023-05-10T20:17:33;11.70;99.90
54642;DHT22;40536;53.194;5.728;2023-05-10T20:19:59;11.70;99.90
54642;DHT22;40536;53.194;5.728;2023-05-10T20:22:24;11.70;99.90
54642;DHT22;40536;53.194;5.728;2023-05-10T20:24:50;11.80;99.90
54642;DHT22;40536;53.194;5.728;2023-05-10T20:27:16;11.80;99.90
54642;DHT22;40536;53.194;5.728;2023-05-10T20:29:43;11.80;99.90
54642;DHT22;40536;53.194;5.728;2023-05-10T20:32:10;11.80;99.90
54642;DHT22;40536;53.194;5.728;2023-05-10T20:34:36;11.70;99.90
54642;DHT22;40536;53.194;5.728;2023-05-10T20:37:02;11.70;99.90
54642;DHT22;40536;53.194;5.728;2023-05-10T20:39:28;11.70;99.90
54642;DHT22;40536;53.194;5.728;2023-05-10T20:41:54;11.70;99.90
54642;DHT22;40536;53.194;5.728;2023-05-10T20:44:19;11.70;99.90
54642;DHT22;40536;53.194;5.728;2023-05-10T20:46:45;11.60;99.90
54642;DHT22;40536;53.194;5.728;2023-05-10T20:49:11;11.60;99.90
54642;DHT22;40536;53.194;5.728;2023-05-10T20:51:36;11.60;99.90
54642;DHT22;40536;53.194;5.728;2023-05-10T20:54:02;11.60;99.90
54642;DHT22;40536;53.194;5.728;2023-05-10T20:56:29;11.50;99.90
54642;DHT22;40536;53.194;5.728;2023-05-10T20:58:55;11.50;99.90
54642;DHT22;40536;53.194;5.728;2023-05-10T21:01:21;11.40;99.90
54642;DHT22;40536;53.194;5.728;2023-05-10T21:03:46;11.40;99.90
54642;DHT22;40536;53.194;5.728;2023-05-10T21:06:12;11.40;99.90
54642;DHT22;40536;53.194;5.728;2023-05-10T21:08:38;11.40;99.90
54642;DHT22;40536;53.194;5.728;2023-05-10T21:11:03;11.30;99.90
54642;DHT22;40536;53.194;5.728;2023-05-10T21:13:30;11.30;99.90
54642;DHT22;40536;53.194;5.728;2023-05-10T21:15:56;11.10;99.90
54642;DHT22;40536;53.194;5.728;2023-05-10T21:18:21;11.10;99.90
54642;DHT22;40536;53.194;5.728;2023-05-10T21:20:47;11.00;99.90
54642;DHT22;40536;53.194;5.728;2023-05-10T21:23:12;11.00;99.90
54642;DHT22;40536;53.194;5.728;2023-05-10T21:25:38;11.00;99.90
54642;DHT22;40536;53.194;5.728;2023-05-10T21:28:04;11.00;99.90
54642;DHT22;40536;53.194;5.728;2023-05-10T21:30:31;11.00;99.90
54642;DHT22;40536;53.194;5.728;2023-05-10T21:32:57;10.90;99.90
54642;DHT22;40536;53.194;5.728;2023-05-10T21:35:28;10.90;99.90
54642;DHT22;40536;53.194;5.728;2023-05-10T21:37:55;10.90;99.90
54642;DHT22;40536;53.194;5.728;2023-05-10T21:40:21;10.90;99.90
54642;DHT22;40536;53.194;5.728;2023-05-10T21:42:46;10.90;99.90
54642;DHT22;40536;53.194;5.728;2023-05-10T21:45:18;10.90;99.90
54642;DHT22;40536;53.194;5.728;2023-05-10T21:47:44;10.90;99.90
54642;DHT22;40536;53.194;5.728;2023-05-10T21:50:10;10.90;99.90
54642;DHT22;40536;53.194;5.728;2023-05-10T21:52:37;10.90;99.90
54642;DHT22;40536;53.194;5.728;2023-05-10T21:55:04;10.90;99.90
54642;DHT22;40536;53.194;5.728;2023-05-10T21:57:30;10.90;99.90
54642;DHT22;40536;53.194;5.728;2023-05-10T21:59:56;10.90;99.90
54642;DHT22;40536;53.194;5.728;2023-05-10T22:02:22;10.80;99.90
54642;DHT22;40536;53.194;5.728;2023-05-10T22:04:48;10.70;99.90
54642;DHT22;40536;53.194;5.728;2023-05-10T22:07:13;10.70;99.90
54642;DHT22;40536;53.194;5.728;2023-05-10T22:09:41;10.70;99.90
54642;DHT22;40536;53.194;5.728;2023-05-10T22:12:07;10.70;99.90
54642;DHT22;40536;53.194;5.728;2023-05-10T22:14:33;10.70;99.90
54642;DHT22;40536;53.194;5.728;2023-05-10T22:16:58;10.70;99.90
54642;DHT22;40536;53.194;5.728;2023-05-10T22:19:24;10.70;99.90
54642;DHT22;40536;53.194;5.728;2023-05-10T22:21:50;10.70;99.90
54642;DHT22;40536;53.194;5.728;2023-05-10T22:24:16;10.70;99.90
54642;DHT22;40536;53.194;5.728;2023-05-10T22:26:41;10.70;99.90
54642;DHT22;40536;53.194;5.728;2023-05-10T22:29:07;10.70;99.90
54642;DHT22;40536;53.194;5.728;2023-05-10T22:31:33;10.70;99.90
54642;DHT22;40536;53.194;5.728;2023-05-10T22:33:58;10.70;99.90
54642;DHT22;40536;53.194;5.728;2023-05-10T22:36:24;10.80;99.90
54642;DHT22;40536;53.194;5.728;2023-05-10T22:38:50;10.70;99.90
54642;DHT22;40536;53.194;5.728;2023-05-10T22:41:15;10.70;99.90
54642;DHT22;40536;53.194;5.728;2023-05-10T22:43:41;10.80;99.90
54642;DHT22;40536;53.194;5.728;2023-05-10T22:46:07;10.70;99.90
54642;DHT22;40536;53.194;5.728;2023-05-10T22:48:33;10.80;99.90
54642;DHT22;40536;53.194;5.728;2023-05-10T22:50:59;10.80;99.90
54642;DHT22;40536;53.194;5.728;2023-05-10T22:53:25;10.80;99.90
54642;DHT22;40536;53.194;5.728;2023-05-10T22:55:51;10.80;99.90
54642;DHT22;40536;53.194;5.728;2023-05-10T22:58:17;10.80;99.90
54642;DHT22;40536;53.194;5.728;2023-05-10T23:00:43;10.80;99.90
54642;DHT22;40536;53.194;5.728;2023-05-10T23:03:08;10.80;99.90
54642;DHT22;40536;53.194;5.728;2023-05-10T23:05:34;10.80;99.90
54642;DHT22;40536;53.194;5.728;2023-05-10T23:08:00;10.80;99.90
54642;DHT22;40536;53.194;5.728;2023-05-10T23:10:25;10.80;99.90
54642;DHT22;40536;53.194;5.728;2023-05-10T23:12:51;10.80;99.90
54642;DHT22;40536;53.194;5.728;2023-05-10T23:15:17;11.20;99.90
54642;DHT22;40536;53.194;5.728;2023-05-10T23:17:43;10.80;99.90
54642;DHT22;40536;53.194;5.728;2023-05-10T23:20:09;10.80;99.90
54642;DHT22;40536;53.194;5.728;2023-05-10T23:22:35;10.80;99.90
54642;DHT22;40536;53.194;5.728;2023-05-10T23:25:00;10.80;99.90
54642;DHT22;40536;53.194;5.728;2023-05-10T23:27:29;10.90;99.90
54642;DHT22;40536;53.194;5.728;2023-05-10T23:29:55;10.80;99.90
54642;DHT22;40536;53.194;5.728;2023-05-10T23:32:21;10.80;99.90
54642;DHT22;40536;53.194;5.728;2023-05-10T23:34:47;10.80;99.90
54642;DHT22;40536;53.194;5.728;2023-05-10T23:37:13;10.80;99.90
54642;DHT22;40536;53.194;5.728;2023-05-10T23:39:39;10.70;99.90
54642;DHT22;40536;53.194;5.728;2023-05-10T23:42:05;10.70;99.90
54642;DHT22;40536;53.194;5.728;2023-05-10T23:44:31;10.70;99.90
54642;DHT22;40536;53.194;5.728;2023-05-10T23:46:57;10.80;99.90
54642;DHT22;40536;53.194;5.728;2023-05-10T23:49:23;10.70;99.90
54642;DHT22;40536;53.194;5.728;2023-05-10T23:51:48;10.70;99.90
54642;DHT22;40536;53.194;5.728;2023-05-10T23:54:14;10.70;99.90
54642;DHT22;40536;53.194;5.728;2023-05-10T23:56:40;10.70;99.90
54642;DHT22;40536;53.194;5.728;2023-05-10T23:59:05;10.70;99.90
